sensor_id;sensor_type;location;lat;lon;timestamp;P1;durP1;ratioP1;P2;durP2;ratioP2
33690;SDS011;20026;50.058;18.428;2023-03-14T00:01:09;54.08;;;23.65;;
33690;SDS011;20026;50.058;18.428;2023-03-14T00:03:35;30.80;;;13.20;;
33690;SDS011;20026;50.058;18.428;2023-03-14T00:06:02;23.88;;;10.10;;
33690;SDS011;20026;50.058;18.428;2023-03-14T00:08:28;33.88;;;11.65;;
33690;SDS011;20026;50.058;18.428;2023-03-14T00:10:54;23.00;;;10.25;;
33690;SDS011;20026;50.058;18.428;2023-03-14T00:13:20;43.47;;;22.08;;
33690;SDS011;20026;50.058;18.428;2023-03-14T00:15:46;36.67;;;18.35;;
33690;SDS011;20026;50.058;18.428;2023-03-14T00:18:12;34.95;;;13.73;;
33690;SDS011;20026;50.058;18.428;2023-03-14T00:20:38;38.08;;;13.32;;
33690;SDS011;20026;50.058;18.428;2023-03-14T00:23:04;38.25;;;15.27;;
33690;SDS011;20026;50.058;18.428;2023-03-14T00:25:30;22.48;;;11.13;;
33690;SDS011;20026;50.058;18.428;2023-03-14T00:27:56;181.57;;;84.50;;
33690;SDS011;20026;50.058;18.428;2023-03-14T00:30:22;29.70;;;13.23;;
33690;SDS011;20026;50.058;18.428;2023-03-14T00:32:48;91.97;;;80.03;;
33690;SDS011;20026;50.058;18.428;2023-03-14T00:35:14;24.27;;;12.85;;
33690;SDS011;20026;50.058;18.428;2023-03-14T00:37:40;16.25;;;9.30;;
33690;SDS011;20026;50.058;18.428;2023-03-14T00:40:07;13.98;;;7.05;;
33690;SDS011;20026;50.058;18.428;2023-03-14T00:42:33;26.13;;;14.68;;
33690;SDS011;20026;50.058;18.428;2023-03-14T00:44:59;27.85;;;18.20;;
33690;SDS011;20026;50.058;18.428;2023-03-14T00:47:25;17.50;;;10.30;;
33690;SDS011;20026;50.058;18.428;2023-03-14T00:49:51;25.23;;;13.60;;
33690;SDS011;20026;50.058;18.428;2023-03-14T00:52:17;17.73;;;8.85;;
33690;SDS011;20026;50.058;18.428;2023-03-14T00:54:43;18.45;;;8.90;;
33690;SDS011;20026;50.058;18.428;2023-03-14T00:57:09;14.18;;;6.05;;
33690;SDS011;20026;50.058;18.428;2023-03-14T00:59:35;16.75;;;6.50;;
33690;SDS011;20026;50.058;18.428;2023-03-14T01:02:01;15.70;;;7.20;;
33690;SDS011;20026;50.058;18.428;2023-03-14T01:04:27;22.13;;;8.82;;
33690;SDS011;20026;50.058;18.428;2023-03-14T01:06:55;22.73;;;10.95;;
33690;SDS011;20026;50.058;18.428;2023-03-14T01:09:21;26.30;;;10.15;;
33690;SDS011;20026;50.058;18.428;2023-03-14T01:11:47;18.90;;;8.35;;
33690;SDS011;20026;50.058;18.428;2023-03-14T01:14:13;16.98;;;8.48;;
33690;SDS011;20026;50.058;18.428;2023-03-14T01:16:39;14.65;;;8.60;;
33690;SDS011;20026;50.058;18.428;2023-03-14T01:19:05;26.60;;;16.45;;
33690;SDS011;20026;50.058;18.428;2023-03-14T01:21:33;21.08;;;12.20;;
33690;SDS011;20026;50.058;18.428;2023-03-14T01:24:00;18.17;;;8.30;;
33690;SDS011;20026;50.058;18.428;2023-03-14T01:26:26;32.50;;;11.93;;
33690;SDS011;20026;50.058;18.428;2023-03-14T01:28:53;20.35;;;9.73;;
33690;SDS011;20026;50.058;18.428;2023-03-14T01:31:19;21.38;;;9.63;;
33690;SDS011;20026;50.058;18.428;2023-03-14T01:33:46;16.20;;;10.18;;
33690;SDS011;20026;50.058;18.428;2023-03-14T01:36:12;53.00;;;30.80;;
33690;SDS011;20026;50.058;18.428;2023-03-14T01:38:39;27.35;;;15.93;;
33690;SDS011;20026;50.058;18.428;2023-03-14T01:41:05;65.82;;;37.22;;
33690;SDS011;20026;50.058;18.428;2023-03-14T01:43:31;36.38;;;19.88;;
33690;SDS011;20026;50.058;18.428;2023-03-14T01:48:34;42.22;;;21.20;;
33690;SDS011;20026;50.058;18.428;2023-03-14T01:51:01;39.63;;;24.08;;
33690;SDS011;20026;50.058;18.428;2023-03-14T01:53:27;47.80;;;28.45;;
33690;SDS011;20026;50.058;18.428;2023-03-14T01:55:54;23.98;;;15.98;;
33690;SDS011;20026;50.058;18.428;2023-03-14T01:58:24;21.35;;;10.80;;
33690;SDS011;20026;50.058;18.428;2023-03-14T02:00:52;18.00;;;10.07;;
33690;SDS011;20026;50.058;18.428;2023-03-14T02:03:18;12.82;;;6.72;;
33690;SDS011;20026;50.058;18.428;2023-03-14T02:05:46;8.50;;;4.60;;
33690;SDS011;20026;50.058;18.428;2023-03-14T02:08:17;10.32;;;6.78;;
33690;SDS011;20026;50.058;18.428;2023-03-14T02:10:44;20.08;;;10.63;;
33690;SDS011;20026;50.058;18.428;2023-03-14T02:13:10;21.65;;;11.77;;
33690;SDS011;20026;50.058;18.428;2023-03-14T02:15:37;19.13;;;10.38;;
33690;SDS011;20026;50.058;18.428;2023-03-14T02:18:04;78.63;;;42.70;;
33690;SDS011;20026;50.058;18.428;2023-03-14T02:23:16;70.43;;;35.05;;
33690;SDS011;20026;50.058;18.428;2023-03-14T02:28:11;72.63;;;32.60;;
33690;SDS011;20026;50.058;18.428;2023-03-14T02:30:38;46.97;;;21.35;;
33690;SDS011;20026;50.058;18.428;2023-03-14T02:33:11;57.90;;;25.08;;
33690;SDS011;20026;50.058;18.428;2023-03-14T02:35:44;67.47;;;30.92;;
33690;SDS011;20026;50.058;18.428;2023-03-14T02:38:29;46.10;;;21.33;;
33690;SDS011;20026;50.058;18.428;2023-03-14T02:40:56;63.15;;;29.63;;
33690;SDS011;20026;50.058;18.428;2023-03-14T02:43:22;77.78;;;36.38;;
33690;SDS011;20026;50.058;18.428;2023-03-14T02:45:49;80.45;;;39.42;;
33690;SDS011;20026;50.058;18.428;2023-03-14T02:48:23;47.70;;;24.15;;
33690;SDS011;20026;50.058;18.428;2023-03-14T02:50:50;64.72;;;33.15;;
33690;SDS011;20026;50.058;18.428;2023-03-14T02:53:19;39.92;;;22.60;;
33690;SDS011;20026;50.058;18.428;2023-03-14T02:55:49;19.85;;;10.82;;
33690;SDS011;20026;50.058;18.428;2023-03-14T02:58:15;29.88;;;18.73;;
33690;SDS011;20026;50.058;18.428;2023-03-14T03:00:41;24.55;;;15.48;;
33690;SDS011;20026;50.058;18.428;2023-03-14T03:03:07;21.15;;;12.88;;
33690;SDS011;20026;50.058;18.428;2023-03-14T03:05:34;28.23;;;16.45;;
33690;SDS011;20026;50.058;18.428;2023-03-14T03:08:00;31.98;;;17.58;;
33690;SDS011;20026;50.058;18.428;2023-03-14T03:10:26;27.30;;;15.65;;
33690;SDS011;20026;50.058;18.428;2023-03-14T03:12:52;23.27;;;12.77;;
33690;SDS011;20026;50.058;18.428;2023-03-14T03:15:18;28.73;;;17.00;;
33690;SDS011;20026;50.058;18.428;2023-03-14T03:17:45;34.05;;;21.65;;
33690;SDS011;20026;50.058;18.428;2023-03-14T03:20:11;23.75;;;14.10;;
33690;SDS011;20026;50.058;18.428;2023-03-14T03:22:37;22.35;;;13.95;;
33690;SDS011;20026;50.058;18.428;2023-03-14T03:25:04;16.75;;;10.02;;
33690;SDS011;20026;50.058;18.428;2023-03-14T03:27:30;15.82;;;9.23;;
33690;SDS011;20026;50.058;18.428;2023-03-14T03:29:57;18.10;;;9.95;;
33690;SDS011;20026;50.058;18.428;2023-03-14T03:32:23;25.58;;;14.65;;
33690;SDS011;20026;50.058;18.428;2023-03-14T03:34:49;17.83;;;8.77;;
33690;SDS011;20026;50.058;18.428;2023-03-14T03:37:15;20.40;;;9.20;;
33690;SDS011;20026;50.058;18.428;2023-03-14T03:39:41;18.40;;;8.95;;
33690;SDS011;20026;50.058;18.428;2023-03-14T03:42:07;22.67;;;9.85;;
33690;SDS011;20026;50.058;18.428;2023-03-14T03:44:33;26.73;;;10.77;;
33690;SDS011;20026;50.058;18.428;2023-03-14T03:46:59;24.75;;;9.90;;
33690;SDS011;20026;50.058;18.428;2023-03-14T03:49:28;20.42;;;9.90;;
33690;SDS011;20026;50.058;18.428;2023-03-14T03:51:54;16.90;;;7.97;;
33690;SDS011;20026;50.058;18.428;2023-03-14T03:54:20;16.73;;;6.80;;
33690;SDS011;20026;50.058;18.428;2023-03-14T03:56:46;12.73;;;5.82;;
33690;SDS011;20026;50.058;18.428;2023-03-14T03:59:12;15.32;;;6.95;;
33690;SDS011;20026;50.058;18.428;2023-03-14T04:01:39;18.77;;;6.50;;
33690;SDS011;20026;50.058;18.428;2023-03-14T04:04:05;20.83;;;7.93;;
33690;SDS011;20026;50.058;18.428;2023-03-14T04:06:31;21.45;;;7.95;;
33690;SDS011;20026;50.058;18.428;2023-03-14T04:08:57;14.98;;;5.95;;
33690;SDS011;20026;50.058;18.428;2023-03-14T04:11:23;22.17;;;7.57;;
33690;SDS011;20026;50.058;18.428;2023-03-14T04:13:49;21.92;;;7.00;;
33690;SDS011;20026;50.058;18.428;2023-03-14T04:16:20;19.15;;;6.60;;
33690;SDS011;20026;50.058;18.428;2023-03-14T04:18:46;120.43;;;48.50;;
33690;SDS011;20026;50.058;18.428;2023-03-14T04:21:12;188.85;;;81.60;;
33690;SDS011;20026;50.058;18.428;2023-03-14T04:23:38;230.77;;;98.00;;
33690;SDS011;20026;50.058;18.428;2023-03-14T04:26:05;174.23;;;72.85;;
33690;SDS011;20026;50.058;18.428;2023-03-14T04:28:31;143.82;;;63.50;;
33690;SDS011;20026;50.058;18.428;2023-03-14T04:30:57;33.00;;;15.35;;
33690;SDS011;20026;50.058;18.428;2023-03-14T04:33:23;16.52;;;7.20;;
33690;SDS011;20026;50.058;18.428;2023-03-14T04:35:52;15.40;;;6.28;;
33690;SDS011;20026;50.058;18.428;2023-03-14T04:38:19;14.68;;;6.28;;
33690;SDS011;20026;50.058;18.428;2023-03-14T04:40:45;11.63;;;5.53;;
33690;SDS011;20026;50.058;18.428;2023-03-14T04:43:11;12.93;;;6.93;;
33690;SDS011;20026;50.058;18.428;2023-03-14T04:45:40;13.55;;;7.45;;
33690;SDS011;20026;50.058;18.428;2023-03-14T04:48:07;16.15;;;7.95;;
33690;SDS011;20026;50.058;18.428;2023-03-14T04:50:33;18.55;;;8.13;;
33690;SDS011;20026;50.058;18.428;2023-03-14T04:52:59;11.35;;;5.32;;
33690;SDS011;20026;50.058;18.428;2023-03-14T04:55:25;18.05;;;8.68;;
33690;SDS011;20026;50.058;18.428;2023-03-14T04:57:51;30.08;;;15.50;;
33690;SDS011;20026;50.058;18.428;2023-03-14T05:00:17;19.48;;;9.02;;
33690;SDS011;20026;50.058;18.428;2023-03-14T05:02:43;24.58;;;9.40;;
33690;SDS011;20026;50.058;18.428;2023-03-14T05:05:10;14.82;;;6.25;;
33690;SDS011;20026;50.058;18.428;2023-03-14T05:07:36;51.65;;;16.67;;
33690;SDS011;20026;50.058;18.428;2023-03-14T05:10:02;16.15;;;9.00;;
33690;SDS011;20026;50.058;18.428;2023-03-14T05:12:28;50.88;;;16.83;;
33690;SDS011;20026;50.058;18.428;2023-03-14T05:14:54;19.88;;;10.35;;
33690;SDS011;20026;50.058;18.428;2023-03-14T05:17:20;20.70;;;11.18;;
33690;SDS011;20026;50.058;18.428;2023-03-14T05:19:46;37.05;;;12.45;;
33690;SDS011;20026;50.058;18.428;2023-03-14T05:22:12;33.15;;;15.23;;
33690;SDS011;20026;50.058;18.428;2023-03-14T05:24:38;26.60;;;10.95;;
33690;SDS011;20026;50.058;18.428;2023-03-14T05:27:04;50.97;;;24.90;;
33690;SDS011;20026;50.058;18.428;2023-03-14T05:29:30;38.38;;;16.50;;
33690;SDS011;20026;50.058;18.428;2023-03-14T05:31:56;118.18;;;32.40;;
33690;SDS011;20026;50.058;18.428;2023-03-14T05:34:22;129.80;;;34.13;;
33690;SDS011;20026;50.058;18.428;2023-03-14T05:36:48;303.20;;;82.03;;
33690;SDS011;20026;50.058;18.428;2023-03-14T05:39:14;445.38;;;135.90;;
33690;SDS011;20026;50.058;18.428;2023-03-14T05:41:40;325.35;;;96.45;;
33690;SDS011;20026;50.058;18.428;2023-03-14T05:44:06;374.23;;;109.68;;
33690;SDS011;20026;50.058;18.428;2023-03-14T05:46:32;516.95;;;157.25;;
33690;SDS011;20026;50.058;18.428;2023-03-14T05:48:58;316.48;;;94.30;;
33690;SDS011;20026;50.058;18.428;2023-03-14T05:51:24;189.23;;;56.70;;
33690;SDS011;20026;50.058;18.428;2023-03-14T05:53:50;86.82;;;28.42;;
33690;SDS011;20026;50.058;18.428;2023-03-14T05:56:16;185.27;;;52.85;;
33690;SDS011;20026;50.058;18.428;2023-03-14T05:58:42;50.60;;;20.58;;
33690;SDS011;20026;50.058;18.428;2023-03-14T06:01:08;85.90;;;29.95;;
33690;SDS011;20026;50.058;18.428;2023-03-14T06:03:34;85.50;;;32.25;;
33690;SDS011;20026;50.058;18.428;2023-03-14T06:06:00;74.38;;;27.95;;
33690;SDS011;20026;50.058;18.428;2023-03-14T06:08:26;94.72;;;30.55;;
33690;SDS011;20026;50.058;18.428;2023-03-14T06:10:53;293.08;;;95.63;;
33690;SDS011;20026;50.058;18.428;2023-03-14T06:13:20;365.33;;;130.13;;
33690;SDS011;20026;50.058;18.428;2023-03-14T06:15:47;270.83;;;90.13;;
33690;SDS011;20026;50.058;18.428;2023-03-14T06:18:13;272.48;;;96.60;;
33690;SDS011;20026;50.058;18.428;2023-03-14T06:20:39;312.15;;;132.63;;
33690;SDS011;20026;50.058;18.428;2023-03-14T06:23:05;1040.75;;;505.55;;
33690;SDS011;20026;50.058;18.428;2023-03-14T06:25:32;87.65;;;40.03;;
33690;SDS011;20026;50.058;18.428;2023-03-14T06:27:58;131.93;;;47.55;;
33690;SDS011;20026;50.058;18.428;2023-03-14T06:30:24;65.22;;;29.30;;
33690;SDS011;20026;50.058;18.428;2023-03-14T06:32:50;42.53;;;17.42;;
33690;SDS011;20026;50.058;18.428;2023-03-14T06:35:16;61.92;;;24.40;;
33690;SDS011;20026;50.058;18.428;2023-03-14T06:37:42;39.22;;;18.83;;
33690;SDS011;20026;50.058;18.428;2023-03-14T06:40:11;26.98;;;12.32;;
33690;SDS011;20026;50.058;18.428;2023-03-14T06:42:41;33.97;;;14.85;;
33690;SDS011;20026;50.058;18.428;2023-03-14T06:45:08;31.75;;;13.70;;
33690;SDS011;20026;50.058;18.428;2023-03-14T06:47:34;31.00;;;13.85;;
33690;SDS011;20026;50.058;18.428;2023-03-14T06:50:00;27.27;;;12.02;;
33690;SDS011;20026;50.058;18.428;2023-03-14T06:52:26;27.48;;;11.70;;
33690;SDS011;20026;50.058;18.428;2023-03-14T06:54:52;22.38;;;8.98;;
33690;SDS011;20026;50.058;18.428;2023-03-14T06:57:18;20.20;;;9.45;;
33690;SDS011;20026;50.058;18.428;2023-03-14T06:59:44;23.05;;;9.25;;
33690;SDS011;20026;50.058;18.428;2023-03-14T07:02:10;19.83;;;8.38;;
33690;SDS011;20026;50.058;18.428;2023-03-14T07:04:37;21.50;;;8.57;;
33690;SDS011;20026;50.058;18.428;2023-03-14T07:07:03;42.22;;;21.33;;
33690;SDS011;20026;50.058;18.428;2023-03-14T07:09:30;643.92;;;250.35;;
33690;SDS011;20026;50.058;18.428;2023-03-14T07:11:56;526.83;;;296.48;;
33690;SDS011;20026;50.058;18.428;2023-03-14T07:14:22;360.38;;;222.52;;
33690;SDS011;20026;50.058;18.428;2023-03-14T07:16:48;458.67;;;287.25;;
33690;SDS011;20026;50.058;18.428;2023-03-14T07:19:14;644.75;;;410.02;;
33690;SDS011;20026;50.058;18.428;2023-03-14T07:21:40;408.05;;;242.27;;
33690;SDS011;20026;50.058;18.428;2023-03-14T07:24:06;351.85;;;225.55;;
33690;SDS011;20026;50.058;18.428;2023-03-14T07:26:32;192.88;;;145.45;;
33690;SDS011;20026;50.058;18.428;2023-03-14T07:28:58;86.00;;;73.70;;
33690;SDS011;20026;50.058;18.428;2023-03-14T07:31:24;29.70;;;21.52;;
33690;SDS011;20026;50.058;18.428;2023-03-14T07:33:50;25.50;;;18.45;;
33690;SDS011;20026;50.058;18.428;2023-03-14T07:36:16;18.83;;;12.23;;
33690;SDS011;20026;50.058;18.428;2023-03-14T07:38:42;21.33;;;11.10;;
33690;SDS011;20026;50.058;18.428;2023-03-14T07:41:08;14.55;;;8.88;;
33690;SDS011;20026;50.058;18.428;2023-03-14T07:43:34;15.00;;;8.32;;
33690;SDS011;20026;50.058;18.428;2023-03-14T07:46:00;24.08;;;8.20;;
33690;SDS011;20026;50.058;18.428;2023-03-14T07:48:26;10.40;;;7.00;;
33690;SDS011;20026;50.058;18.428;2023-03-14T07:50:53;13.13;;;6.35;;
33690;SDS011;20026;50.058;18.428;2023-03-14T07:53:19;16.55;;;9.88;;
33690;SDS011;20026;50.058;18.428;2023-03-14T07:55:45;14.77;;;11.85;;
33690;SDS011;20026;50.058;18.428;2023-03-14T07:58:11;18.80;;;12.77;;
33690;SDS011;20026;50.058;18.428;2023-03-14T08:00:38;13.13;;;8.10;;
33690;SDS011;20026;50.058;18.428;2023-03-14T08:03:04;12.25;;;6.82;;
33690;SDS011;20026;50.058;18.428;2023-03-14T08:05:30;14.98;;;10.88;;
33690;SDS011;20026;50.058;18.428;2023-03-14T08:07:56;17.48;;;9.60;;
33690;SDS011;20026;50.058;18.428;2023-03-14T08:10:22;28.83;;;13.43;;
33690;SDS011;20026;50.058;18.428;2023-03-14T08:12:53;38.72;;;14.23;;
33690;SDS011;20026;50.058;18.428;2023-03-14T08:15:20;24.70;;;9.52;;
33690;SDS011;20026;50.058;18.428;2023-03-14T08:17:46;11.05;;;5.57;;
33690;SDS011;20026;50.058;18.428;2023-03-14T08:20:16;10.18;;;4.95;;
33690;SDS011;20026;50.058;18.428;2023-03-14T08:22:42;10.88;;;5.05;;
33690;SDS011;20026;50.058;18.428;2023-03-14T08:25:08;9.88;;;4.65;;
33690;SDS011;20026;50.058;18.428;2023-03-14T08:27:34;9.15;;;5.32;;
33690;SDS011;20026;50.058;18.428;2023-03-14T08:30:03;13.73;;;5.72;;
33690;SDS011;20026;50.058;18.428;2023-03-14T08:32:29;6.45;;;3.85;;
33690;SDS011;20026;50.058;18.428;2023-03-14T08:34:55;11.82;;;6.47;;
33690;SDS011;20026;50.058;18.428;2023-03-14T08:37:21;8.52;;;5.20;;
33690;SDS011;20026;50.058;18.428;2023-03-14T08:39:49;6.43;;;3.90;;
33690;SDS011;20026;50.058;18.428;2023-03-14T08:42:15;7.28;;;4.05;;
33690;SDS011;20026;50.058;18.428;2023-03-14T08:44:41;9.63;;;4.93;;
33690;SDS011;20026;50.058;18.428;2023-03-14T08:47:07;7.32;;;4.40;;
33690;SDS011;20026;50.058;18.428;2023-03-14T08:49:33;8.30;;;4.30;;
33690;SDS011;20026;50.058;18.428;2023-03-14T08:52:00;11.57;;;4.28;;
33690;SDS011;20026;50.058;18.428;2023-03-14T08:54:26;11.18;;;5.88;;
33690;SDS011;20026;50.058;18.428;2023-03-14T08:56:52;17.55;;;8.27;;
33690;SDS011;20026;50.058;18.428;2023-03-14T08:59:18;10.90;;;5.80;;
33690;SDS011;20026;50.058;18.428;2023-03-14T09:01:44;11.85;;;4.35;;
33690;SDS011;20026;50.058;18.428;2023-03-14T09:04:10;7.40;;;4.00;;
33690;SDS011;20026;50.058;18.428;2023-03-14T09:06:36;5.53;;;3.17;;
33690;SDS011;20026;50.058;18.428;2023-03-14T09:09:02;10.07;;;4.82;;
33690;SDS011;20026;50.058;18.428;2023-03-14T09:11:28;14.25;;;8.30;;
33690;SDS011;20026;50.058;18.428;2023-03-14T09:13:54;23.55;;;5.68;;
33690;SDS011;20026;50.058;18.428;2023-03-14T09:16:20;10.20;;;4.13;;
33690;SDS011;20026;50.058;18.428;2023-03-14T09:18:46;12.23;;;5.57;;
33690;SDS011;20026;50.058;18.428;2023-03-14T09:21:12;11.15;;;4.38;;
33690;SDS011;20026;50.058;18.428;2023-03-14T09:23:39;6.47;;;3.60;;
33690;SDS011;20026;50.058;18.428;2023-03-14T09:26:05;10.40;;;3.88;;
33690;SDS011;20026;50.058;18.428;2023-03-14T09:28:31;12.40;;;4.03;;
33690;SDS011;20026;50.058;18.428;2023-03-14T09:30:57;13.00;;;4.97;;
33690;SDS011;20026;50.058;18.428;2023-03-14T09:33:23;11.30;;;4.85;;
33690;SDS011;20026;50.058;18.428;2023-03-14T09:35:49;11.65;;;6.50;;
33690;SDS011;20026;50.058;18.428;2023-03-14T09:38:15;16.48;;;7.55;;
33690;SDS011;20026;50.058;18.428;2023-03-14T09:40:41;9.15;;;5.05;;
33690;SDS011;20026;50.058;18.428;2023-03-14T09:43:11;15.15;;;6.18;;
33690;SDS011;20026;50.058;18.428;2023-03-14T09:45:39;14.13;;;5.40;;
33690;SDS011;20026;50.058;18.428;2023-03-14T09:48:05;14.85;;;6.82;;
33690;SDS011;20026;50.058;18.428;2023-03-14T09:50:53;10.43;;;5.38;;
33690;SDS011;20026;50.058;18.428;2023-03-14T09:53:19;14.32;;;7.95;;
33690;SDS011;20026;50.058;18.428;2023-03-14T09:55:47;9.20;;;5.53;;
33690;SDS011;20026;50.058;18.428;2023-03-14T09:58:16;10.70;;;6.03;;
33690;SDS011;20026;50.058;18.428;2023-03-14T10:00:42;10.75;;;5.32;;
33690;SDS011;20026;50.058;18.428;2023-03-14T10:05:34;10.30;;;4.60;;
33690;SDS011;20026;50.058;18.428;2023-03-14T10:08:00;14.55;;;6.63;;
33690;SDS011;20026;50.058;18.428;2023-03-14T10:10:26;8.77;;;4.07;;
33690;SDS011;20026;50.058;18.428;2023-03-14T10:12:59;22.85;;;6.95;;
33690;SDS011;20026;50.058;18.428;2023-03-14T10:15:30;13.30;;;5.53;;
33690;SDS011;20026;50.058;18.428;2023-03-14T10:17:58;13.13;;;6.15;;
33690;SDS011;20026;50.058;18.428;2023-03-14T10:20:28;7.40;;;4.03;;
33690;SDS011;20026;50.058;18.428;2023-03-14T10:22:58;9.55;;;4.28;;
33690;SDS011;20026;50.058;18.428;2023-03-14T10:25:26;9.77;;;4.20;;
33690;SDS011;20026;50.058;18.428;2023-03-14T10:27:52;9.98;;;4.72;;
33690;SDS011;20026;50.058;18.428;2023-03-14T10:32:56;10.43;;;4.78;;
33690;SDS011;20026;50.058;18.428;2023-03-14T10:35:22;10.52;;;5.05;;
33690;SDS011;20026;50.058;18.428;2023-03-14T10:37:53;17.90;;;8.27;;
33690;SDS011;20026;50.058;18.428;2023-03-14T10:40:20;22.83;;;12.38;;
33690;SDS011;20026;50.058;18.428;2023-03-14T10:42:49;15.95;;;7.55;;
33690;SDS011;20026;50.058;18.428;2023-03-14T10:47:59;10.05;;;5.90;;
33690;SDS011;20026;50.058;18.428;2023-03-14T10:50:29;13.02;;;6.32;;
33690;SDS011;20026;50.058;18.428;2023-03-14T10:52:56;47.05;;;33.28;;
33690;SDS011;20026;50.058;18.428;2023-03-14T10:55:25;70.25;;;47.97;;
33690;SDS011;20026;50.058;18.428;2023-03-14T10:57:51;97.65;;;60.97;;
33690;SDS011;20026;50.058;18.428;2023-03-14T11:00:21;231.57;;;105.68;;
33690;SDS011;20026;50.058;18.428;2023-03-14T11:07:49;104.50;;;46.72;;
33690;SDS011;20026;50.058;18.428;2023-03-14T11:10:19;95.10;;;44.50;;
33690;SDS011;20026;50.058;18.428;2023-03-14T11:15:26;80.57;;;40.80;;
33690;SDS011;20026;50.058;18.428;2023-03-14T11:23:14;29.10;;;13.88;;
33690;SDS011;20026;50.058;18.428;2023-03-14T11:25:56;102.15;;;44.25;;
33690;SDS011;20026;50.058;18.428;2023-03-14T11:28:39;51.60;;;21.15;;
33690;SDS011;20026;50.058;18.428;2023-03-14T11:31:16;42.50;;;15.93;;
33690;SDS011;20026;50.058;18.428;2023-03-14T11:36:20;15.30;;;9.98;;
33690;SDS011;20026;50.058;18.428;2023-03-14T11:38:50;15.18;;;8.85;;
33690;SDS011;20026;50.058;18.428;2023-03-14T11:43:54;26.23;;;13.27;;
33690;SDS011;20026;50.058;18.428;2023-03-14T11:46:34;17.27;;;9.05;;
33690;SDS011;20026;50.058;18.428;2023-03-14T11:49:11;17.83;;;9.68;;
33690;SDS011;20026;50.058;18.428;2023-03-14T11:51:39;14.00;;;7.15;;
33690;SDS011;20026;50.058;18.428;2023-03-14T11:59:22;11.07;;;6.68;;
33690;SDS011;20026;50.058;18.428;2023-03-14T12:01:51;10.80;;;7.13;;
33690;SDS011;20026;50.058;18.428;2023-03-14T12:09:53;10.27;;;5.30;;
33690;SDS011;20026;50.058;18.428;2023-03-14T12:12:21;9.85;;;6.35;;
33690;SDS011;20026;50.058;18.428;2023-03-14T12:14:58;12.25;;;6.18;;
33690;SDS011;20026;50.058;18.428;2023-03-14T12:17:38;14.55;;;7.38;;
33690;SDS011;20026;50.058;18.428;2023-03-14T12:20:18;17.63;;;7.72;;
33690;SDS011;20026;50.058;18.428;2023-03-14T12:22:46;18.88;;;7.90;;
33690;SDS011;20026;50.058;18.428;2023-03-14T12:25:14;12.30;;;6.22;;
33690;SDS011;20026;50.058;18.428;2023-03-14T12:27:45;12.18;;;7.28;;
33690;SDS011;20026;50.058;18.428;2023-03-14T12:30:18;13.52;;;8.80;;
33690;SDS011;20026;50.058;18.428;2023-03-14T12:35:47;13.82;;;7.57;;
33690;SDS011;20026;50.058;18.428;2023-03-14T12:46:44;15.20;;;7.60;;
33690;SDS011;20026;50.058;18.428;2023-03-14T12:49:10;13.10;;;8.13;;
33690;SDS011;20026;50.058;18.428;2023-03-14T12:51:37;12.90;;;7.78;;
33690;SDS011;20026;50.058;18.428;2023-03-14T12:54:21;13.65;;;7.47;;
33690;SDS011;20026;50.058;18.428;2023-03-14T12:59:32;14.90;;;9.70;;
33690;SDS011;20026;50.058;18.428;2023-03-14T13:02:00;16.77;;;11.27;;
33690;SDS011;20026;50.058;18.428;2023-03-14T13:04:34;14.98;;;10.27;;
33690;SDS011;20026;50.058;18.428;2023-03-14T13:07:01;17.98;;;12.00;;
33690;SDS011;20026;50.058;18.428;2023-03-14T13:12:17;53.75;;;34.47;;
33690;SDS011;20026;50.058;18.428;2023-03-14T13:14:44;35.78;;;27.45;;
33690;SDS011;20026;50.058;18.428;2023-03-14T13:17:14;28.80;;;20.27;;
33690;SDS011;20026;50.058;18.428;2023-03-14T13:19:41;40.83;;;28.08;;
33690;SDS011;20026;50.058;18.428;2023-03-14T13:22:16;36.83;;;22.55;;
33690;SDS011;20026;50.058;18.428;2023-03-14T13:24:43;43.17;;;30.10;;
33690;SDS011;20026;50.058;18.428;2023-03-14T13:27:15;115.78;;;44.03;;
33690;SDS011;20026;50.058;18.428;2023-03-14T13:29:43;348.08;;;109.22;;
33690;SDS011;20026;50.058;18.428;2023-03-14T13:32:22;33.17;;;26.85;;
33690;SDS011;20026;50.058;18.428;2023-03-14T13:34:48;148.80;;;101.30;;
33690;SDS011;20026;50.058;18.428;2023-03-14T13:37:19;684.00;;;397.58;;
33690;SDS011;20026;50.058;18.428;2023-03-14T13:39:52;817.35;;;449.40;;
33690;SDS011;20026;50.058;18.428;2023-03-14T13:42:20;744.97;;;395.30;;
33690;SDS011;20026;50.058;18.428;2023-03-14T13:44:46;773.65;;;437.17;;
33690;SDS011;20026;50.058;18.428;2023-03-14T13:47:14;790.00;;;455.95;;
33690;SDS011;20026;50.058;18.428;2023-03-14T13:49:40;418.60;;;210.82;;
33690;SDS011;20026;50.058;18.428;2023-03-14T13:52:23;479.50;;;267.55;;
33690;SDS011;20026;50.058;18.428;2023-03-14T13:54:53;153.80;;;98.95;;
33690;SDS011;20026;50.058;18.428;2023-03-14T13:59:45;27.13;;;18.20;;
33690;SDS011;20026;50.058;18.428;2023-03-14T14:02:23;43.50;;;30.27;;
33690;SDS011;20026;50.058;18.428;2023-03-14T14:04:50;43.00;;;26.52;;
33690;SDS011;20026;50.058;18.428;2023-03-14T14:07:16;43.00;;;25.90;;
33690;SDS011;20026;50.058;18.428;2023-03-14T14:09:44;24.23;;;17.08;;
33690;SDS011;20026;50.058;18.428;2023-03-14T14:15:28;21.60;;;14.35;;
33690;SDS011;20026;50.058;18.428;2023-03-14T14:17:54;17.07;;;13.53;;
33690;SDS011;20026;50.058;18.428;2023-03-14T14:20:29;27.17;;;16.55;;
33690;SDS011;20026;50.058;18.428;2023-03-14T14:22:59;24.48;;;15.18;;
33690;SDS011;20026;50.058;18.428;2023-03-14T14:25:27;21.20;;;11.23;;
33690;SDS011;20026;50.058;18.428;2023-03-14T14:27:53;28.40;;;20.63;;
33690;SDS011;20026;50.058;18.428;2023-03-14T14:32:49;20.23;;;11.80;;
33690;SDS011;20026;50.058;18.428;2023-03-14T14:35:26;17.73;;;12.10;;
33690;SDS011;20026;50.058;18.428;2023-03-14T14:37:52;15.15;;;10.90;;
33690;SDS011;20026;50.058;18.428;2023-03-14T14:40:19;19.30;;;13.20;;
33690;SDS011;20026;50.058;18.428;2023-03-14T14:42:45;25.83;;;17.55;;
33690;SDS011;20026;50.058;18.428;2023-03-14T14:45:33;26.30;;;14.73;;
33690;SDS011;20026;50.058;18.428;2023-03-14T14:52:56;20.45;;;13.40;;
33690;SDS011;20026;50.058;18.428;2023-03-14T14:55:22;18.13;;;13.25;;
33690;SDS011;20026;50.058;18.428;2023-03-14T14:57:52;19.75;;;14.20;;
33690;SDS011;20026;50.058;18.428;2023-03-14T15:00:22;22.17;;;14.65;;
33690;SDS011;20026;50.058;18.428;2023-03-14T15:02:50;18.92;;;13.48;;
33690;SDS011;20026;50.058;18.428;2023-03-14T15:07:43;22.10;;;12.23;;
33690;SDS011;20026;50.058;18.428;2023-03-14T15:10:10;35.65;;;18.40;;
33690;SDS011;20026;50.058;18.428;2023-03-14T15:12:36;24.52;;;13.30;;
33690;SDS011;20026;50.058;18.428;2023-03-14T15:15:02;24.98;;;14.63;;
33690;SDS011;20026;50.058;18.428;2023-03-14T15:17:28;20.63;;;12.98;;
33690;SDS011;20026;50.058;18.428;2023-03-14T15:19:54;44.92;;;34.22;;
33690;SDS011;20026;50.058;18.428;2023-03-14T15:22:23;18.90;;;11.90;;
33690;SDS011;20026;50.058;18.428;2023-03-14T15:24:49;27.98;;;21.70;;
33690;SDS011;20026;50.058;18.428;2023-03-14T15:27:15;33.35;;;17.35;;
33690;SDS011;20026;50.058;18.428;2023-03-14T15:29:42;33.95;;;17.58;;
33690;SDS011;20026;50.058;18.428;2023-03-14T15:32:11;30.92;;;17.83;;